Time;durP1;ratioP1;P1;durP2;ratioP2;P2;SDS_P1;SDS_P2;PMS_P1;PMS_P2;Temp;Humidity;BMP_temperature;BMP_pressure;BME280_temperature;BME280_humidity;BME280_pressure;Samples;Min_cycle;Max_cycle;Signal;HPM_P1;HPM_P2
2022/01/09 07:18:32;;;;;;;4.40;3.30;;;;;;;;;;6284230;22;20074;-84
2022/01/09 09:21:30;;;;;;;12.68;8.48;;;;;;;;;;6297357;22;20011;-84
2022/01/09 09:23:55;;;;;;;13.85;8.10;;;;;;;;;;6308682;22;20392;-85
2022/01/09 09:26:21;;;;;;;15.48;8.20;;;;;;;;;;6308072;22;20052;-83
2022/01/09 09:28:47;;;;;;;10.25;7.35;;;;;;;;;;6280657;22;20036;-83
2022/01/09 09:31:14;;;;;;;8.35;6.72;;;;;;;;;;6307252;22;20440;-87
2022/01/09 09:33:40;;;;;;;11.57;7.07;;;;;;;;;;6281647;22;20007;-93
2022/01/09 09:36:07;;;;;;;10.50;7.30;;;;;;;;;;6280890;22;20023;-85
2022/01/09 09:38:33;;;;;;;10.13;6.53;;;;;;;;;;6279960;22;20030;-85
2022/01/09 09:40:59;;;;;;;9.65;6.50;;;;;;;;;;6307918;22;20406;-86
2022/01/09 09:43:25;;;;;;;8.45;5.90;;;;;;;;;;6307758;22;20444;-88
2022/01/09 09:45:53;;;;;;;10.20;6.72;;;;;;;;;;6308110;22;20030;-88
2022/01/09 09:48:19;;;;;;;11.15;7.07;;;;;;;;;;6307706;22;19995;-86
2022/01/09 09:50:45;;;;;;;11.82;7.15;;;;;;;;;;6308119;22;19999;-86
2022/01/09 09:53:11;;;;;;;8.65;6.40;;;;;;;;;;6307988;22;20044;-85
2022/01/09 09:55:36;;;;;;;9.93;6.55;;;;;;;;;;6307849;22;20070;-86
2022/01/09 09:58:01;;;;;;;8.43;6.35;;;;;;;;;;6307766;22;20013;-86
2022/01/09 10:00:27;;;;;;;9.75;6.30;;;;;;;;;;6308016;22;20007;-85
2022/01/09 10:02:58;;;;;;;9.00;5.90;;;;;;;;;;6307867;22;20007;-86
2022/01/09 10:05:33;;;;;;;10.73;5.65;;;;;;;;;;6307806;22;20365;-85
2022/01/09 10:08:06;;;;;;;10.20;6.10;;;;;;;;;;6280450;22;20011;-87
2022/01/09 10:10:33;;;;;;;8.80;6.45;;;;;;;;;;6307957;22;20006;-86
2022/01/09 10:13:09;;;;;;;8.00;5.55;;;;;;;;;;6307967;22;20000;-85
2022/01/09 10:15:55;;;;;;;8.00;5.93;;;;;;;;;;6280222;22;20003;-86
2022/01/09 10:18:53;;;;;;;7.40;5.78;;;;;;;;;;6280410;22;20331;-85
2022/01/09 10:21:26;;;;;;;7.72;5.72;;;;;;;;;;6198123;22;20011;-86
2022/01/09 10:24:11;;;;;;;7.53;4.88;;;;;;;;;;6307639;22;20098;-85
2022/01/09 10:26:47;;;;;;;6.68;4.90;;;;;;;;;;6309462;22;20322;-89
2022/01/09 10:29:12;;;;;;;7.90;4.95;;;;;;;;;;6309593;22;20080;-84
2022/01/09 10:31:46;;;;;;;6.93;4.95;;;;;;;;;;6310089;22;20414;-85
2022/01/09 10:34:12;;;;;;;6.97;5.10;;;;;;;;;;6282074;22;20373;-85
2022/01/09 10:36:48;;;;;;;10.27;5.93;;;;;;;;;;6309720;22;20003;-83
2022/01/09 10:39:16;;;;;;;7.65;5.13;;;;;;;;;;6282020;22;20338;-85
2022/01/09 10:41:52;;;;;;;9.05;4.45;;;;;;;;;;6309427;22;20007;-84
2022/01/09 10:44:20;;;;;;;7.10;4.32;;;;;;;;;;6281170;22;20385;-85
2022/01/09 10:46:53;;;;;;;7.75;4.80;;;;;;;;;;6309206;22;20003;-85
2022/01/09 10:49:19;;;;;;;13.48;5.70;;;;;;;;;;6309609;22;20052;-84
2022/01/09 10:51:45;;;;;;;7.40;5.10;;;;;;;;;;6308972;22;20004;-85
2022/01/09 10:54:10;;;;;;;8.23;5.40;;;;;;;;;;6309082;22;20414;-85
2022/01/09 10:56:35;;;;;;;9.43;6.68;;;;;;;;;;6309278;22;19999;-85
2022/01/09 10:59:01;;;;;;;7.30;5.63;;;;;;;;;;6309162;22;19999;-83
2022/01/09 11:01:31;;;;;;;10.20;6.13;;;;;;;;;;6308958;22;20027;-85
2022/01/09 11:04:04;;;;;;;9.52;7.05;;;;;;;;;;6309267;22;20003;-84
2022/01/09 11:06:32;;;;;;;34.40;11.63;;;;;;;;;;6281671;22;20327;-85
2022/01/09 11:08:58;;;;;;;12.65;7.78;;;;;;;;;;6308725;22;20007;-85
2022/01/09 11:11:33;;;;;;;13.57;8.98;;;;;;;;;;6281676;22;20061;-85
2022/01/09 11:14:02;;;;;;;6.13;5.25;;;;;;;;;;6309221;22;20006;-86
2022/01/09 11:16:34;;;;;;;9.75;5.43;;;;;;;;;;6309048;22;20030;-84
2022/01/09 11:19:05;;;;;;;9.43;6.20;;;;;;;;;;6309485;22;20418;-86
2022/01/09 11:21:30;;;;;;;8.82;5.30;;;;;;;;;;6311268;22;20057;-85
2022/01/09 11:24:14;;;;;;;8.75;6.55;;;;;;;;;;6284150;22;20042;-86
2022/01/09 11:27:16;;;;;;;17.45;11.00;;;;;;;;;;6286167;22;20002;-86
2022/01/09 11:29:51;;;;;;;10.80;5.90;;;;;;;;;;6282089;22;20004;-86
2022/01/09 11:32:44;;;;;;;8.25;5.00;;;;;;;;;;6281645;22;20007;-86
2022/01/09 11:35:34;;;;;;;7.18;5.10;;;;;;;;;;6281824;22;20084;-85
2022/01/09 11:38:27;;;;;;;9.75;8.20;;;;;;;;;;6281372;22;20426;-84
2022/01/09 11:40:52;;;;;;;5.22;4.65;;;;;;;;;;6281674;22;20000;-85
2022/01/09 11:43:20;;;;;;;4.90;4.13;;;;;;;;;;6308706;22;19999;-83
2022/01/09 11:45:55;;;;;;;7.88;4.03;;;;;;;;;;6281207;22;20007;-84
2022/01/09 11:48:42;;;;;;;5.28;4.43;;;;;;;;;;6309019;22;20003;-85
2022/01/09 11:51:08;;;;;;;46.47;26.13;;;;;;;;;;6308871;22;20064;-85
2022/01/09 11:54:11;;;;;;;20.42;12.82;;;;;;;;;;6281607;22;20007;-85
2022/01/09 11:56:57;;;;;;;7.93;5.18;;;;;;;;;;6257735;22;20007;-85
2022/01/09 11:59:38;;;;;;;6.05;4.38;;;;;;;;;;6283357;22;20007;-86
2022/01/09 12:02:04;;;;;;;10.98;5.80;;;;;;;;;;6313279;22;20007;-86
2022/01/09 12:04:33;;;;;;;6.05;4.70;;;;;;;;;;6283260;22;20033;-85
2022/01/09 12:06:59;;;;;;;6.40;5.10;;;;;;;;;;6283970;22;20015;-88
2022/01/09 12:09:42;;;;;;;6.93;4.60;;;;;;;;;;6309984;22;19995;-90
2022/01/09 12:12:10;;;;;;;8.15;5.68;;;;;;;;;;6281980;22;20003;-92
2022/01/09 12:14:42;;;;;;;6.38;4.25;;;;;;;;;;6282931;22;20311;-88
2022/01/09 12:17:23;;;;;;;5.97;3.95;;;;;;;;;;6282431;22;20505;-88
2022/01/09 12:20:11;;;;;;;4.97;3.55;;;;;;;;;;6282112;22;20065;-86
2022/01/09 12:22:46;;;;;;;5.93;3.83;;;;;;;;;;6281262;22;20026;-86
2022/01/09 12:25:42;;;;;;;6.95;3.88;;;;;;;;;;6281238;22;20086;-87
2022/01/09 12:28:19;;;;;;;5.55;3.70;;;;;;;;;;6281170;22;20003;-84
2022/01/09 12:30:57;;;;;;;5.80;3.90;;;;;;;;;;6308117;22;20021;-85
2022/01/09 12:33:25;;;;;;;7.18;3.90;;;;;;;;;;6280723;22;20003;-85
2022/01/09 12:35:56;;;;;;;4.93;4.05;;;;;;;;;;6280622;22;20467;-84
2022/01/09 12:38:25;;;;;;;6.15;4.40;;;;;;;;;;6280732;22;20007;-84
2022/01/09 12:41:17;;;;;;;6.35;4.43;;;;;;;;;;6308261;22;20010;-84
2022/01/09 12:43:45;;;;;;;4.95;4.05;;;;;;;;;;6302087;22;20031;-85
2022/01/09 12:46:17;;;;;;;7.95;4.60;;;;;;;;;;6308260;22;20411;-85
2022/01/09 12:49:16;;;;;;;6.47;4.40;;;;;;;;;;6280871;22;20072;-85
2022/01/09 12:51:50;;;;;;;5.00;4.45;;;;;;;;;;6301911;22;20007;-84
2022/01/09 12:54:16;;;;;;;6.03;4.70;;;;;;;;;;6280658;22;20011;-85
2022/01/09 12:56:42;;;;;;;6.75;5.40;;;;;;;;;;6280728;22;20004;-85
2022/01/09 12:59:09;;;;;;;5.70;4.32;;;;;;;;;;6307874;22;20003;-85
2022/01/09 13:01:46;;;;;;;8.15;7.45;;;;;;;;;;6280712;22;20485;-85
2022/01/09 13:04:18;;;;;;;6.55;3.80;;;;;;;;;;6307888;22;20006;-86
2022/01/09 13:06:50;;;;;;;4.90;3.65;;;;;;;;;;6283763;22;20067;-86
2022/01/09 13:09:21;;;;;;;4.53;4.10;;;;;;;;;;6307676;22;20004;-85
2022/01/09 13:11:53;;;;;;;5.82;4.72;;;;;;;;;;6280591;22;20057;-85
2022/01/09 13:14:18;;;;;;;6.20;5.20;;;;;;;;;;6281022;22;20103;-85
2022/01/09 13:16:44;;;;;;;7.13;5.15;;;;;;;;;;6307746;22;20039;-86
2022/01/09 13:19:15;;;;;;;5.40;4.60;;;;;;;;;;6280584;22;20061;-84
2022/01/09 13:21:45;;;;;;;6.28;5.68;;;;;;;;;;6280248;22;20011;-85
2022/01/09 13:24:17;;;;;;;7.18;5.00;;;;;;;;;;6279968;22;20414;-85
2022/01/09 13:26:46;;;;;;;9.20;8.40;;;;;;;;;;6307975;22;20423;-85
2022/01/09 13:29:18;;;;;;;6.13;5.53;;;;;;;;;;6307990;22;20349;-85
2022/01/09 13:31:50;;;;;;;8.40;5.03;;;;;;;;;;6280569;22;20333;-84
2022/01/09 13:34:18;;;;;;;4.55;3.40;;;;;;;;;;6307680;22;19999;-83
2022/01/09 13:36:47;;;;;;;5.10;3.47;;;;;;;;;;6308131;22;20035;-85
2022/01/09 13:39:17;;;;;;;4.72;3.58;;;;;;;;;;6307723;22;20027;-86
2022/01/09 13:41:56;;;;;;;6.47;4.10;;;;;;;;;;6307901;22;20030;-84
2022/01/09 13:44:22;;;;;;;7.20;5.65;;;;;;;;;;6307676;22;20003;-85
2022/01/09 13:46:58;;;;;;;8.18;5.60;;;;;;;;;;6307927;22;20006;-85
2022/01/09 13:49:23;;;;;;;7.57;5.75;;;;;;;;;;6307814;22;20011;-85
2022/01/09 13:51:49;;;;;;;8.80;6.47;;;;;;;;;;6307660;22;19999;-84
2022/01/09 13:54:18;;;;;;;10.35;5.82;;;;;;;;;;6280437;22;20031;-89
2022/01/09 13:56:57;;;;;;;9.32;6.15;;;;;;;;;;6307966;22;20003;-88
2022/01/09 13:59:36;;;;;;;9.35;6.35;;;;;;;;;;6280717;22;20615;-84
2022/01/09 14:02:02;;;;;;;11.68;6.28;;;;;;;;;;6309831;22;20026;-86
2022/01/09 14:04:27;;;;;;;8.82;5.90;;;;;;;;;;6282605;22;20007;-85
2022/01/09 14:06:59;;;;;;;8.13;5.95;;;;;;;;;;6310425;22;20346;-85
2022/01/09 14:09:31;;;;;;;8.70;5.38;;;;;;;;;;6282473;22;20085;-86
2022/01/09 14:11:58;;;;;;;8.40;6.30;;;;;;;;;;6310223;22;20027;-84
2022/01/09 14:14:32;;;;;;;11.95;6.05;;;;;;;;;;6282400;22;20010;-85
2022/01/09 14:16:58;;;;;;;8.43;5.70;;;;;;;;;;6309332;22;20415;-84
2022/01/09 14:19:23;;;;;;;9.05;6.45;;;;;;;;;;6309653;22;20028;-85
2022/01/09 14:21:57;;;;;;;7.70;6.38;;;;;;;;;;6309511;22;20011;-84
2022/01/09 14:24:22;;;;;;;9.32;6.13;;;;;;;;;;6282414;22;20015;-86
2022/01/09 14:26:58;;;;;;;9.80;6.50;;;;;;;;;;6309472;22;20003;-83
2022/01/09 14:29:39;;;;;;;8.20;5.95;;;;;;;;;;6309680;22;20011;-86
2022/01/09 14:32:17;;;;;;;7.60;5.63;;;;;;;;;;6282096;22;20389;-84
2022/01/09 14:34:42;;;;;;;8.52;6.15;;;;;;;;;;6281929;22;20015;-84
2022/01/09 14:37:12;;;;;;;9.88;5.78;;;;;;;;;;6307747;22;20009;-84
2022/01/09 14:39:38;;;;;;;8.15;5.88;;;;;;;;;;6282187;22;20086;-83
2022/01/09 14:42:06;;;;;;;9.23;5.57;;;;;;;;;;6281895;22;20022;-83
2022/01/09 14:44:33;;;;;;;6.88;4.60;;;;;;;;;;6309208;22;19999;-84
2022/01/09 14:46:59;;;;;;;5.82;4.57;;;;;;;;;;6281755;22;19995;-84
2022/01/09 14:49:25;;;;;;;6.97;4.85;;;;;;;;;;6281880;22;20034;-84
2022/01/09 14:51:51;;;;;;;6.35;4.93;;;;;;;;;;6309143;22;20010;-84
2022/01/09 14:54:16;;;;;;;9.48;5.30;;;;;;;;;;6281770;22;20027;-84
2022/01/09 14:56:42;;;;;;;8.73;5.20;;;;;;;;;;6281619;22;20392;-84
2022/01/09 14:59:07;;;;;;;7.93;5.47;;;;;;;;;;6310019;22;20420;-85
2022/01/09 15:01:33;;;;;;;8.45;5.35;;;;;;;;;;6282110;22;20010;-88
2022/01/09 15:03:58;;;;;;;6.85;4.90;;;;;;;;;;6309472;22;20006;-83
2022/01/09 15:06:24;;;;;;;7.38;5.07;;;;;;;;;;6281927;22;20007;-84
2022/01/09 15:08:50;;;;;;;7.47;5.22;;;;;;;;;;6281908;22;20003;-83
2022/01/09 15:11:15;;;;;;;6.57;5.20;;;;;;;;;;6309236;22;20003;-85
2022/01/09 15:13:41;;;;;;;6.68;4.93;;;;;;;;;;6309011;22;20007;-85
2022/01/09 15:16:07;;;;;;;6.72;5.00;;;;;;;;;;6281615;22;20007;-83
2022/01/09 15:18:33;;;;;;;7.70;4.60;;;;;;;;;;6309345;22;20007;-84
2022/01/09 15:20:58;;;;;;;6.35;4.82;;;;;;;;;;6281500;22;20334;-84
2022/01/09 15:23:24;;;;;;;7.30;5.13;;;;;;;;;;6281438;22;20038;-84
2022/01/09 15:25:50;;;;;;;11.25;6.65;;;;;;;;;;6309519;22;20003;-85
2022/01/09 15:28:16;;;;;;;9.32;6.30;;;;;;;;;;6309363;22;20406;-84
2022/01/09 15:30:43;;;;;;;10.32;6.20;;;;;;;;;;6281639;22;20003;-84
2022/01/09 15:33:10;;;;;;;10.35;6.32;;;;;;;;;;6309188;22;20437;-83
2022/01/09 15:35:36;;;;;;;11.48;8.98;;;;;;;;;;6309028;22;20433;-84
2022/01/09 15:38:02;;;;;;;11.27;9.10;;;;;;;;;;6281633;22;19999;-83
2022/01/09 15:40:28;;;;;;;8.00;5.53;;;;;;;;;;6309026;22;20007;-84
2022/01/09 15:42:53;;;;;;;7.00;4.78;;;;;;;;;;6309104;22;20078;-84
2022/01/09 15:45:19;;;;;;;6.25;5.20;;;;;;;;;;6309060;22;20026;-84
2022/01/09 15:47:45;;;;;;;7.43;5.53;;;;;;;;;;6281504;22;20007;-84
2022/01/09 15:50:11;;;;;;;10.25;6.18;;;;;;;;;;6281431;22;20004;-84
2022/01/09 15:52:38;;;;;;;8.15;5.90;;;;;;;;;;6309419;22;20003;-84
2022/01/09 15:55:04;;;;;;;6.82;5.43;;;;;;;;;;6281572;22;20014;-84
2022/01/09 15:57:29;;;;;;;9.68;6.28;;;;;;;;;;6281300;22;20011;-83
2022/01/09 15:59:55;;;;;;;7.68;5.55;;;;;;;;;;6308917;22;20030;-84
2022/01/09 16:02:21;;;;;;;7.95;5.20;;;;;;;;;;6308938;22;19991;-83
2022/01/09 16:04:47;;;;;;;12.43;5.30;;;;;;;;;;6308660;22;20011;-84
2022/01/09 16:07:12;;;;;;;7.93;4.95;;;;;;;;;;6308800;22;19999;-86
2022/01/09 16:09:38;;;;;;;6.53;4.90;;;;;;;;;;6308895;22;20034;-84
2022/01/09 16:12:09;;;;;;;7.65;4.93;;;;;;;;;;6281333;22;20419;-84
2022/01/09 16:14:36;;;;;;;6.13;4.10;;;;;;;;;;6281350;22;20009;-84
2022/01/09 16:17:02;;;;;;;6.60;4.75;;;;;;;;;;6308407;22;20007;-83
2022/01/09 16:19:29;;;;;;;7.82;4.65;;;;;;;;;;6308641;22;20074;-84
2022/01/09 16:21:55;;;;;;;7.22;5.40;;;;;;;;;;6280972;22;20064;-86
2022/01/09 16:24:20;;;;;;;5.20;4.30;;;;;;;;;;6280932;22;20078;-85
2022/01/09 16:26:46;;;;;;;5.88;4.20;;;;;;;;;;6308511;22;20023;-85
2022/01/09 16:29:14;;;;;;;6.57;4.15;;;;;;;;;;6280970;22;20007;-84
2022/01/09 16:31:41;;;;;;;7.00;4.10;;;;;;;;;;6308623;22;20022;-84
2022/01/09 16:34:07;;;;;;;5.25;3.85;;;;;;;;;;6308285;22;20013;-85
2022/01/09 16:36:32;;;;;;;5.30;3.42;;;;;;;;;;6308934;22;20035;-88
2022/01/09 16:38:58;;;;;;;4.95;3.22;;;;;;;;;;6308115;22;20007;-85
2022/01/09 16:41:23;;;;;;;7.22;5.05;;;;;;;;;;6280835;22;20003;-84
2022/01/09 16:43:50;;;;;;;9.90;5.70;;;;;;;;;;6308290;22;20003;-85
2022/01/09 16:46:16;;;;;;;8.35;5.55;;;;;;;;;;6281148;22;20454;-84
2022/01/09 16:48:42;;;;;;;9.15;5.35;;;;;;;;;;6308555;22;20074;-84
2022/01/09 16:51:08;;;;;;;8.02;5.28;;;;;;;;;;6308777;22;20023;-84
2022/01/09 16:53:42;;;;;;;8.75;5.32;;;;;;;;;;6308570;22;20009;-83
2022/01/09 16:56:09;;;;;;;7.30;4.95;;;;;;;;;;6308996;22;20501;-84
2022/01/09 16:58:37;;;;;;;8.05;4.93;;;;;;;;;;6308778;22;20066;-83
2022/01/09 17:01:03;;;;;;;7.82;5.10;;;;;;;;;;6308684;22;20020;-84
2022/01/09 17:03:33;;;;;;;7.97;5.80;;;;;;;;;;6280984;22;20495;-84
2022/01/09 17:06:03;;;;;;;5.22;3.38;;;;;;;;;;6308369;22;20006;-84
2022/01/09 17:08:36;;;;;;;4.65;3.83;;;;;;;;;;6308074;22;20003;-84
2022/01/09 17:11:03;;;;;;;6.03;3.60;;;;;;;;;;6308127;22;20460;-84
2022/01/09 17:13:29;;;;;;;5.03;3.35;;;;;;;;;;6308042;22;20057;-84
2022/01/09 17:15:54;;;;;;;20.50;12.35;;;;;;;;;;6307962;22;20003;-84
2022/01/09 17:18:20;;;;;;;12.40;8.25;;;;;;;;;;6308177;22;20311;-84
2022/01/09 17:20:46;;;;;;;5.63;4.45;;;;;;;;;;6280720;22;20308;-85
2022/01/09 17:23:12;;;;;;;4.30;3.38;;;;;;;;;;6307940;22;20316;-85
2022/01/09 17:25:37;;;;;;;5.07;2.90;;;;;;;;;;6307999;22;19999;-85
2022/01/09 17:28:03;;;;;;;6.03;3.90;;;;;;;;;;6307873;22;19999;-83
2022/01/09 17:30:28;;;;;;;6.60;4.82;;;;;;;;;;6308195;22;20004;-85
2022/01/09 17:32:54;;;;;;;5.45;3.80;;;;;;;;;;6308077;22;19995;-84
2022/01/09 17:35:20;;;;;;;5.35;3.80;;;;;;;;;;6307795;22;20005;-85
2022/01/09 17:37:45;;;;;;;5.22;4.10;;;;;;;;;;6307803;22;20034;-84
2022/01/09 17:40:11;;;;;;;5.18;3.70;;;;;;;;;;6280552;22;19999;-85
2022/01/09 17:42:37;;;;;;;5.95;4.20;;;;;;;;;;6307516;22;19999;-85
2022/01/09 17:45:03;;;;;;;6.43;4.25;;;;;;;;;;6280145;22;20011;-85
2022/01/09 17:47:29;;;;;;;7.38;5.18;;;;;;;;;;6307321;22;20433;-83
2022/01/09 17:49:55;;;;;;;6.70;4.05;;;;;;;;;;6307267;22;19999;-84
2022/01/09 17:52:21;;;;;;;14.45;9.50;;;;;;;;;;6280419;22;20007;-82
2022/01/09 17:54:46;;;;;;;24.30;10.40;;;;;;;;;;6280328;22;20340;-87
2022/01/09 17:57:13;;;;;;;39.28;17.45;;;;;;;;;;6306901;22;20437;-81
2022/01/09 17:59:39;;;;;;;12.50;7.22;;;;;;;;;;6307221;22;20011;-82
2022/01/09 18:02:04;;;;;;;8.98;6.75;;;;;;;;;;6306733;22;20376;-81
2022/01/09 18:04:30;;;;;;;14.05;12.65;;;;;;;;;;6307397;22;20003;-82
2022/01/09 18:06:55;;;;;;;9.63;6.78;;;;;;;;;;6308130;22;20010;-82
2022/01/09 18:09:21;;;;;;;8.40;6.32;;;;;;;;;;6281008;22;20334;-83
2022/01/09 18:11:47;;;;;;;7.43;5.25;;;;;;;;;;6308099;22;20132;-84
2022/01/09 18:14:12;;;;;;;9.90;6.50;;;;;;;;;;6307699;22;20541;-83
2022/01/09 18:16:38;;;;;;;8.82;5.80;;;;;;;;;;6308383;22;20299;-83
2022/01/09 18:19:04;;;;;;;8.88;5.45;;;;;;;;;;6306874;22;20003;-83
2022/01/09 18:21:31;;;;;;;7.40;5.15;;;;;;;;;;6307249;22;20019;-84
2022/01/09 18:23:57;;;;;;;12.90;6.00;;;;;;;;;;6306233;22;20010;-84
2022/01/09 18:26:24;;;;;;;8.55;5.80;;;;;;;;;;6306986;22;20006;-84
2022/01/09 18:28:51;;;;;;;5.88;4.85;;;;;;;;;;6307004;22;20086;-84
2022/01/09 18:31:17;;;;;;;8.50;5.90;;;;;;;;;;6307476;22;20003;-83
2022/01/09 18:33:42;;;;;;;9.55;5.50;;;;;;;;;;6307416;22;20369;-83
2022/01/09 18:36:08;;;;;;;7.65;5.32;;;;;;;;;;6305950;22;20479;-84
2022/01/09 18:38:33;;;;;;;7.47;5.47;;;;;;;;;;6279431;22;20007;-84
2022/01/09 18:40:59;;;;;;;7.13;5.47;;;;;;;;;;6307295;22;19999;-83
2022/01/09 18:43:26;;;;;;;9.45;5.07;;;;;;;;;;6280281;22;20003;-84
2022/01/09 18:45:52;;;;;;;8.63;5.85;;;;;;;;;;6307910;22;20131;-84
2022/01/09 18:48:18;;;;;;;7.25;4.60;;;;;;;;;;6309486;22;20003;-84
2022/01/09 18:50:43;;;;;;;7.68;5.50;;;;;;;;;;6309610;22;20299;-85
2022/01/09 18:53:09;;;;;;;6.55;5.10;;;;;;;;;;6309655;22;20002;-85
2022/01/09 18:55:34;;;;;;;9.18;5.43;;;;;;;;;;6308611;22;20003;-83
2022/01/09 18:58:00;;;;;;;11.50;4.72;;;;;;;;;;6308520;22;20003;-84
2022/01/09 19:00:26;;;;;;;6.60;5.00;;;;;;;;;;6309021;22;20010;-83
2022/01/09 19:02:51;;;;;;;8.50;5.20;;;;;;;;;;6308911;22;20003;-84
2022/01/09 19:05:17;;;;;;;9.10;5.68;;;;;;;;;;6255926;22;20045;-82
2022/01/09 19:07:43;;;;;;;7.10;4.72;;;;;;;;;;6308568;22;20376;-82
2022/01/09 19:10:11;;;;;;;7.53;5.43;;;;;;;;;;6308700;22;20030;-83
2022/01/09 19:12:37;;;;;;;7.03;4.85;;;;;;;;;;6309129;22;20041;-83
2022/01/09 19:15:04;;;;;;;7.13;4.55;;;;;;;;;;6309107;22;20319;-82
2022/01/09 19:17:29;;;;;;;7.10;4.90;;;;;;;;;;6281305;22;20330;-83
2022/01/09 19:19:57;;;;;;;7.97;5.35;;;;;;;;;;6308980;22;20027;-83
2022/01/09 19:22:24;;;;;;;7.80;5.85;;;;;;;;;;6308938;22;20026;-83
2022/01/09 19:24:50;;;;;;;10.90;7.38;;;;;;;;;;6309052;22;19999;-82
2022/01/09 19:27:16;;;;;;;11.48;7.63;;;;;;;;;;6308820;22;20070;-83
2022/01/09 19:29:42;;;;;;;9.05;6.28;;;;;;;;;;6308901;22;20078;-83
2022/01/09 19:32:07;;;;;;;8.52;5.80;;;;;;;;;;6281570;22;20096;-83
2022/01/09 19:34:33;;;;;;;7.85;5.38;;;;;;;;;;6281461;22;20048;-83
2022/01/09 19:36:59;;;;;;;8.82;5.63;;;;;;;;;;6281357;22;20015;-83
2022/01/09 19:39:25;;;;;;;10.40;6.53;;;;;;;;;;6308578;22;20472;-83
2022/01/09 19:41:51;;;;;;;7.97;6.05;;;;;;;;;;6280995;22;20468;-83
2022/01/09 19:44:20;;;;;;;20.13;11.27;;;;;;;;;;6308141;22;20074;-83
2022/01/09 19:46:47;;;;;;;136.50;57.38;;;;;;;;;;6308760;22;20414;-83
2022/01/09 19:49:13;;;;;;;80.03;34.25;;;;;;;;;;6308546;22;20445;-83
2022/01/09 19:51:39;;;;;;;77.07;33.17;;;;;;;;;;6281229;22;20003;-82
2022/01/09 19:54:06;;;;;;;33.55;16.48;;;;;;;;;;6281100;22;20009;-83
2022/01/09 19:56:31;;;;;;;45.13;21.35;;;;;;;;;;6308513;22;20003;-83
2022/01/09 19:58:58;;;;;;;32.35;15.15;;;;;;;;;;6308185;22;20429;-82
2022/01/09 20:01:24;;;;;;;46.65;20.52;;;;;;;;;;6308706;22;20007;-83
2022/01/09 20:03:49;;;;;;;17.98;9.05;;;;;;;;;;6280930;22;20007;-83
2022/01/09 20:06:15;;;;;;;16.20;9.63;;;;;;;;;;6281192;22;20007;-82
2022/01/09 20:08:40;;;;;;;15.60;9.27;;;;;;;;;;6308363;22;20027;-83
2022/01/09 20:11:06;;;;;;;17.38;9.35;;;;;;;;;;6308518;22;20003;-83
2022/01/09 20:13:31;;;;;;;12.13;6.28;;;;;;;;;;6280770;22;19996;-82
2022/01/09 20:15:56;;;;;;;8.80;6.22;;;;;;;;;;6308452;22;20007;-82
2022/01/09 20:18:22;;;;;;;12.77;7.65;;;;;;;;;;6308638;22;20088;-82
2022/01/09 20:20:47;;;;;;;18.10;12.63;;;;;;;;;;6308496;22;20354;-83
2022/01/09 20:23:13;;;;;;;14.80;9.60;;;;;;;;;;6308170;22;20015;-83
2022/01/09 20:25:38;;;;;;;18.23;9.45;;;;;;;;;;6308505;22;20003;-83
2022/01/09 20:28:08;;;;;;;18.38;9.55;;;;;;;;;;6306573;22;20049;-83
2022/01/09 20:30:34;;;;;;;16.70;10.23;;;;;;;;;;6307539;22;20461;-82
2022/01/09 20:33:00;;;;;;;14.80;9.63;;;;;;;;;;6307914;22;19999;-83
2022/01/09 20:35:25;;;;;;;14.38;9.30;;;;;;;;;;6308138;22;19996;-83
2022/01/09 20:37:51;;;;;;;15.38;9.45;;;;;;;;;;6308048;22;20014;-82
2022/01/09 20:40:16;;;;;;;21.10;11.82;;;;;;;;;;6308134;22;20007;-83
2022/01/09 20:42:42;;;;;;;18.27;10.73;;;;;;;;;;6308364;22;20044;-83
2022/01/09 20:45:08;;;;;;;18.25;11.13;;;;;;;;;;6280520;22;20042;-87
2022/01/09 20:47:35;;;;;;;20.38;11.63;;;;;;;;;;6308166;22;20453;-85
2022/01/09 20:50:02;;;;;;;17.40;10.80;;;;;;;;;;6308300;22;20357;-86
2022/01/09 20:52:28;;;;;;;18.33;11.30;;;;;;;;;;6308503;22;20033;-86
2022/01/09 20:54:53;;;;;;;18.45;11.85;;;;;;;;;;6308500;22;20010;-86
2022/01/09 20:57:19;;;;;;;17.60;11.43;;;;;;;;;;6308097;22;20422;-86
2022/01/09 20:59:46;;;;;;;16.17;11.15;;;;;;;;;;6308265;22;20010;-85
2022/01/09 21:02:16;;;;;;;14.93;10.38;;;;;;;;;;6308267;22;20322;-85
2022/01/09 21:04:41;;;;;;;16.42;9.98;;;;;;;;;;6280584;22;20007;-82
2022/01/09 21:07:07;;;;;;;14.98;9.48;;;;;;;;;;6307499;22;20453;-83
2022/01/09 21:09:33;;;;;;;16.00;9.95;;;;;;;;;;6307908;22;20006;-83
2022/01/09 21:11:58;;;;;;;12.63;8.27;;;;;;;;;;6280530;22;20007;-82
2022/01/09 21:14:24;;;;;;;13.98;9.52;;;;;;;;;;6308161;22;20018;-82
2022/01/09 21:16:49;;;;;;;14.98;9.77;;;;;;;;;;6307986;22;20023;-82
2022/01/09 21:19:15;;;;;;;14.70;8.55;;;;;;;;;;6308351;22;20003;-82
2022/01/09 21:21:41;;;;;;;12.35;8.32;;;;;;;;;;6307796;22;20019;-83
2022/01/09 21:24:06;;;;;;;19.50;13.32;;;;;;;;;;6307899;22;20003;-83
2022/01/09 21:26:31;;;;;;;13.70;10.05;;;;;;;;;;6280688;22;19999;-82
2022/01/09 21:28:57;;;;;;;11.45;8.73;;;;;;;;;;6307804;22;20057;-83
2022/01/09 21:31:23;;;;;;;15.77;9.80;;;;;;;;;;6308091;22;19995;-83
2022/01/09 21:33:48;;;;;;;13.27;8.27;;;;;;;;;;6307839;22;20006;-83
2022/01/09 21:36:14;;;;;;;13.65;8.75;;;;;;;;;;6307883;22;20010;-83
2022/01/09 21:38:40;;;;;;;17.17;9.73;;;;;;;;;;6307926;22;20010;-83
2022/01/09 21:41:05;;;;;;;14.05;9.00;;;;;;;;;;6307739;22;20003;-82
2022/01/09 21:43:31;;;;;;;15.30;10.02;;;;;;;;;;6308147;22;20033;-83
2022/01/09 21:45:56;;;;;;;13.30;9.48;;;;;;;;;;6307963;22;20027;-81
2022/01/09 21:48:22;;;;;;;11.63;8.38;;;;;;;;;;6307969;22;20090;-83
2022/01/09 21:50:47;;;;;;;14.10;9.27;;;;;;;;;;6280416;22;20082;-83
2022/01/09 21:53:13;;;;;;;13.70;8.80;;;;;;;;;;6307882;22;20006;-83
2022/01/09 21:55:38;;;;;;;11.48;7.40;;;;;;;;;;6308225;22;20479;-83
2022/01/09 21:58:03;;;;;;;10.07;6.85;;;;;;;;;;6308904;22;20030;-83
2022/01/09 22:00:30;;;;;;;10.10;6.30;;;;;;;;;;6308451;22;20330;-83
2022/01/09 22:03:02;;;;;;;11.98;7.85;;;;;;;;;;6308749;22;20049;-83
2022/01/09 22:05:28;;;;;;;13.60;9.07;;;;;;;;;;6283176;22;20419;-82
2022/01/09 22:07:54;;;;;;;17.38;10.77;;;;;;;;;;6313046;22;20442;-82
2022/01/09 22:10:19;;;;;;;12.18;9.35;;;;;;;;;;6312808;22;19999;-82
2022/01/09 22:12:45;;;;;;;12.20;8.27;;;;;;;;;;6281824;22;20094;-83
2022/01/09 22:15:11;;;;;;;14.18;8.15;;;;;;;;;;6280473;22;20011;-83
2022/01/09 22:17:37;;;;;;;16.10;9.93;;;;;;;;;;6307429;22;20003;-83
2022/01/09 22:20:06;;;;;;;21.40;16.38;;;;;;;;;;6307834;22;20003;-83
2022/01/09 22:22:31;;;;;;;13.95;9.63;;;;;;;;;;6309083;22;20007;-83
2022/01/09 22:24:58;;;;;;;14.52;9.60;;;;;;;;;;6309755;22;20003;-82
2022/01/09 22:27:24;;;;;;;17.25;10.82;;;;;;;;;;6282277;22;20144;-84
2022/01/09 22:29:54;;;;;;;16.17;10.35;;;;;;;;;;6309647;22;19999;-82
2022/01/09 22:32:24;;;;;;;14.93;10.48;;;;;;;;;;6282342;22;20014;-82
2022/01/09 22:34:49;;;;;;;;;;;;;;;;;;6310267;22;20007;-83
2022/01/09 22:37:16;;;;;;;16.90;9.82;;;;;;;;;;6310194;22;19907;-84
2022/01/09 22:39:43;;;;;;;11.95;8.50;;;;;;;;;;6282225;22;19999;-83
2022/01/09 22:42:10;;;;;;;12.93;8.82;;;;;;;;;;6309555;22;19999;-83
2022/01/09 22:44:36;;;;;;;10.98;7.05;;;;;;;;;;6309422;22;20003;-83
2022/01/09 22:47:02;;;;;;;13.45;8.55;;;;;;;;;;6309378;22;20073;-83
2022/01/09 22:49:27;;;;;;;12.00;9.20;;;;;;;;;;6309738;22;20011;-82
2022/01/09 22:51:53;;;;;;;11.57;8.35;;;;;;;;;;6309505;22;20082;-81
2022/01/09 22:54:18;;;;;;;15.48;8.50;;;;;;;;;;6309022;22;19999;-84
2022/01/09 22:56:44;;;;;;;11.70;7.85;;;;;;;;;;6309444;22;20013;-85
2022/01/09 23:01:44;;;;;;;18.92;13.65;;;;;;;;;;6326289;22;20022;-84
2022/01/09 23:04:10;;;;;;;13.38;7.97;;;;;;;;;;6340790;22;20003;-84
2022/01/09 23:06:35;;;;;;;12.50;8.55;;;;;;;;;;6313112;22;20027;-84
